Terminal Aerodrome Forecast
Issued by NWS Brownsville, TX

Home | Current Version | Previous Version | Text Only | Print | Product List | Glossary On
Versions: 1 2 3 4 5 6 7 8 9 10 11 12 13
000
FTUS44 KBRO 251122
TAFMFE
TAF
KMFE 251122Z 2512/2612 14009KT P6SM SCT250
     FM251500 14016G22KT P6SM SCT040
     FM260400 14010KT P6SM SKC=

USA.gov is the U.S. government's official web portal to all federal, state and local government web resources and services.